createdAt,value
2018-07-02T00:00:35.675Z,0.30
2018-07-02T00:01:35.640Z,0.30
2018-07-02T00:02:35.628Z,0.30
2018-07-02T00:03:35.621Z,0.30
2018-07-02T00:04:35.606Z,0.30
2018-07-02T00:05:35.618Z,0.30
2018-07-02T00:06:35.585Z,0.20
2018-07-02T00:07:35.573Z,0.20
2018-07-02T00:08:35.564Z,0.30
2018-07-02T00:09:35.551Z,0.30
2018-07-02T00:10:35.568Z,0.40
2018-07-02T00:11:35.529Z,0.20
2018-07-02T00:12:35.523Z,0.30
2018-07-02T00:13:35.507Z,0.30
2018-07-02T00:14:35.497Z,0.30
2018-07-02T00:15:35.508Z,0.30
2018-07-02T00:16:35.474Z,0.30
2018-07-02T00:17:35.468Z,0.30
2018-07-02T00:18:35.452Z,0.20
2018-07-02T00:19:35.440Z,0.30
2018-07-02T00:20:35.459Z,0.30
2018-07-02T00:21:35.419Z,0.30
2018-07-02T00:22:35.410Z,0.30
2018-07-02T00:23:35.396Z,0.30
2018-07-02T00:24:35.384Z,0.30
2018-07-02T00:25:35.404Z,0.20
2018-07-02T00:26:35.363Z,0.30
2018-07-02T00:27:35.353Z,0.30
2018-07-02T00:28:35.341Z,0.40
2018-07-02T00:29:35.330Z,0.30
2018-07-02T00:30:35.345Z,0.30
2018-07-02T00:31:35.307Z,0.30
2018-07-02T00:32:35.296Z,0.30
2018-07-02T00:33:35.285Z,0.30
2018-07-02T00:34:35.277Z,0.20
2018-07-02T00:35:35.288Z,0.30
2018-07-02T00:36:35.253Z,0.40
2018-07-02T00:37:35.241Z,0.40
2018-07-02T00:38:35.230Z,0.30
2018-07-02T00:39:35.221Z,0.30
2018-07-02T00:40:35.232Z,0.40
2018-07-02T00:41:35.199Z,0.20
2018-07-02T00:42:35.228Z,0.40
2018-07-02T00:43:35.177Z,0.40
2018-07-02T00:44:35.163Z,0.40
2018-07-02T00:45:35.155Z,0.40
2018-07-02T00:46:35.168Z,0.40
2018-07-02T00:47:35.131Z,0.50
2018-07-02T00:48:35.133Z,0.20
2018-07-02T00:49:35.111Z,0.30
2018-07-02T00:50:35.099Z,0.30
2018-07-02T00:51:35.111Z,0.40
2018-07-02T00:52:35.076Z,0.40
2018-07-02T00:53:35.065Z,0.30
2018-07-02T00:54:35.056Z,0.50
2018-07-02T00:55:35.045Z,0.30
2018-07-02T00:56:35.056Z,0.20
2018-07-02T00:57:35.025Z,0.30
2018-07-02T00:58:35.010Z,0.50
2018-07-02T00:59:34.999Z,0.40
2018-07-02T01:00:34.988Z,0.40
2018-07-02T01:01:35.001Z,0.20
2018-07-02T01:02:34.965Z,0.30
2018-07-02T01:03:34.954Z,0.30
2018-07-02T01:04:34.943Z,0.40
2018-07-02T01:05:34.938Z,0.40
2018-07-02T01:06:34.947Z,0.60
2018-07-02T01:07:34.911Z,0.30
2018-07-02T01:08:34.898Z,0.40
2018-07-02T01:09:34.887Z,0.40
2018-07-02T01:10:34.877Z,0.30
2018-07-02T01:11:34.890Z,0.30
2018-07-02T01:12:34.855Z,0.40
2018-07-02T01:13:34.844Z,0.30
2018-07-02T01:14:34.881Z,0.40
2018-07-02T01:15:34.822Z,0.30
2018-07-02T01:16:34.834Z,0.30
2018-07-02T01:17:34.800Z,0.30
2018-07-02T01:18:34.789Z,0.20
2018-07-02T01:19:34.777Z,0.40
2018-07-02T01:20:34.772Z,0.30
2018-07-02T01:21:34.780Z,0.40
2018-07-02T01:22:34.747Z,0.20
2018-07-02T01:23:34.733Z,0.30
2018-07-02T01:24:34.723Z,0.20
2018-07-02T01:25:34.711Z,0.30
2018-07-02T01:26:34.724Z,0.30
2018-07-02T01:27:34.690Z,0.30
2018-07-02T01:28:34.678Z,0.50
2018-07-02T01:29:34.666Z,0.40
2018-07-02T01:30:34.656Z,0.40
2018-07-02T01:31:34.667Z,0.30
2018-07-02T01:32:34.634Z,0.40
2018-07-02T01:33:34.623Z,0.40
2018-07-02T01:34:34.611Z,0.40
2018-07-02T01:35:34.601Z,0.30
2018-07-02T01:36:34.615Z,0.40
2018-07-02T01:37:34.578Z,0.30
2018-07-02T01:38:34.567Z,0.40
2018-07-02T01:39:35.422Z,0.30
2018-07-02T01:40:34.546Z,0.40
2018-07-02T01:41:34.559Z,0.30
2018-07-02T01:42:34.529Z,0.30
2018-07-02T01:43:34.512Z,0.40
2018-07-02T01:44:34.501Z,0.40
2018-07-02T01:45:34.491Z,0.20
2018-07-02T01:46:34.505Z,0.30
2018-07-02T01:47:34.468Z,0.40
2018-07-02T01:48:34.456Z,0.30
2018-07-02T01:49:34.455Z,0.30
2018-07-02T01:50:34.435Z,0.40
2018-07-02T01:51:34.449Z,0.20
2018-07-02T01:52:34.412Z,0.40
2018-07-02T01:53:34.400Z,0.30
2018-07-02T01:54:34.390Z,0.40
2018-07-02T01:55:34.383Z,0.30
2018-07-02T01:56:34.397Z,0.40
2018-07-02T01:57:34.357Z,0.30
2018-07-02T01:58:34.346Z,0.40
2018-07-02T01:59:34.335Z,0.30
2018-07-02T02:00:34.326Z,0.30
2018-07-02T02:01:34.339Z,0.30
2018-07-02T02:02:34.303Z,0.30
2018-07-02T02:03:34.290Z,0.30
2018-07-02T02:04:34.280Z,0.40
2018-07-02T02:05:34.269Z,0.30
2018-07-02T02:06:34.282Z,0.30
2018-07-02T02:07:34.247Z,0.40
2018-07-02T02:08:34.236Z,0.40
2018-07-02T02:09:34.225Z,0.40
2018-07-02T02:10:34.212Z,0.40
2018-07-02T02:11:34.226Z,0.40
2018-07-02T02:12:34.190Z,0.20
2018-07-02T02:13:34.180Z,0.20
2018-07-02T02:14:34.169Z,0.30
2018-07-02T02:15:34.160Z,0.30
2018-07-02T02:16:34.172Z,0.40
2018-07-02T02:17:34.141Z,0.40
2018-07-02T02:18:34.127Z,0.40
2018-07-02T02:19:34.113Z,0.40
2018-07-02T02:20:34.103Z,0.50
2018-07-02T02:21:34.118Z,0.40
2018-07-02T02:22:34.082Z,0.30
2018-07-02T02:23:34.070Z,0.30
2018-07-02T02:24:34.064Z,0.30
2018-07-02T02:25:34.049Z,0.30
2018-07-02T02:26:34.040Z,0.40
2018-07-02T02:27:34.052Z,0.30
2018-07-02T02:28:34.015Z,0.30
2018-07-02T02:29:34.005Z,0.30
2018-07-02T02:30:33.995Z,0.20
2018-07-02T02:31:33.984Z,0.40
2018-07-02T02:32:33.997Z,0.20
2018-07-02T02:33:33.960Z,0.50
2018-07-02T02:34:33.956Z,0.30
2018-07-02T02:35:33.939Z,0.30
2018-07-02T02:36:33.930Z,0.30
2018-07-02T02:37:33.941Z,0.30
2018-07-02T02:38:33.905Z,0.30
2018-07-02T02:39:33.896Z,0.40
2018-07-02T02:40:33.888Z,0.30
2018-07-02T02:41:33.874Z,0.20
2018-07-02T02:42:33.885Z,0.30
2018-07-02T02:43:33.850Z,0.40
2018-07-02T02:44:33.839Z,0.30
2018-07-02T02:45:33.829Z,0.30
2018-07-02T02:46:33.821Z,0.40
2018-07-02T02:47:33.830Z,0.20
2018-07-02T02:48:33.794Z,0.30
2018-07-02T02:49:33.783Z,0.50
2018-07-02T02:50:33.771Z,0.30
2018-07-02T02:51:33.760Z,0.40
2018-07-02T02:52:33.776Z,0.40
2018-07-02T02:53:33.741Z,0.30
2018-07-02T02:54:33.730Z,0.30
2018-07-02T02:55:33.716Z,0.30
2018-07-02T02:56:33.705Z,0.30
2018-07-02T02:57:33.719Z,0.30
2018-07-02T02:58:33.687Z,0.30
2018-07-02T02:59:33.673Z,0.40
2018-07-02T03:00:33.664Z,0.20
2018-07-02T03:01:33.651Z,0.40
2018-07-02T03:02:33.665Z,0.30
2018-07-02T03:03:33.630Z,0.40
2018-07-02T03:04:33.619Z,0.50
2018-07-02T03:05:33.609Z,0.40
2018-07-02T03:06:33.595Z,0.40
2018-07-02T03:07:33.609Z,0.30
2018-07-02T03:08:33.573Z,0.30
2018-07-02T03:09:33.566Z,0.30
2018-07-02T03:10:33.551Z,0.30
2018-07-02T03:11:33.542Z,0.40
2018-07-02T03:12:33.556Z,0.40
2018-07-02T03:13:33.519Z,0.40
2018-07-02T03:14:33.507Z,0.30
2018-07-02T03:15:33.500Z,0.30
2018-07-02T03:16:33.486Z,0.40
2018-07-02T03:17:33.499Z,0.40
2018-07-02T03:18:33.464Z,0.40
2018-07-02T03:19:33.454Z,0.30
2018-07-02T03:20:33.442Z,0.20
2018-07-02T03:21:33.434Z,0.40
2018-07-02T03:22:33.445Z,0.40
2018-07-02T03:23:33.409Z,0.40
2018-07-02T03:24:33.400Z,0.30
2018-07-02T03:25:33.390Z,0.40
2018-07-02T03:26:33.377Z,0.50
2018-07-02T03:27:33.390Z,0.40
2018-07-02T03:28:33.356Z,0.40
2018-07-02T03:29:33.343Z,0.40
2018-07-02T03:30:33.354Z,0.40
2018-07-02T03:31:33.326Z,0.30
2018-07-02T03:32:33.333Z,0.40
2018-07-02T03:33:33.299Z,0.40
2018-07-02T03:34:33.287Z,0.40
2018-07-02T03:35:33.278Z,0.40
2018-07-02T03:36:33.267Z,0.30
2018-07-02T03:37:33.283Z,0.40
2018-07-02T03:38:33.245Z,0.20
2018-07-02T03:39:33.235Z,0.30
2018-07-02T03:40:33.223Z,0.50
2018-07-02T03:41:33.211Z,0.40
2018-07-02T03:42:33.225Z,0.30
2018-07-02T03:43:33.189Z,0.30
2018-07-02T03:44:33.177Z,0.30
2018-07-02T03:45:33.166Z,0.40
2018-07-02T03:46:33.157Z,0.40
2018-07-02T03:47:33.169Z,0.50
2018-07-02T03:48:33.136Z,0.40
2018-07-02T03:49:33.123Z,0.40
2018-07-02T03:50:33.113Z,0.40
2018-07-02T03:51:33.102Z,0.40
2018-07-02T03:52:33.115Z,0.30
2018-07-02T03:53:33.080Z,0.30
2018-07-02T03:54:33.068Z,0.30
2018-07-02T03:55:33.061Z,0.30
2018-07-02T03:56:33.046Z,0.40
2018-07-02T03:57:33.064Z,0.40
2018-07-02T03:58:33.025Z,0.30
2018-07-02T03:59:33.016Z,0.40
2018-07-02T04:00:33.001Z,0.50
2018-07-02T04:01:32.994Z,0.40
2018-07-02T04:02:33.008Z,0.30
2018-07-02T04:03:32.969Z,0.50
2018-07-02T04:04:32.960Z,0.30
2018-07-02T04:05:32.950Z,0.40
2018-07-02T04:06:32.937Z,0.30
2018-07-02T04:07:32.952Z,0.40
2018-07-02T04:08:32.915Z,0.20
2018-07-02T04:09:32.903Z,0.40
2018-07-02T04:10:32.892Z,0.40
2018-07-02T04:11:32.881Z,0.20
2018-07-02T04:12:32.872Z,0.40
2018-07-02T04:13:32.885Z,0.50
2018-07-02T04:14:32.851Z,0.50
2018-07-02T04:15:32.840Z,0.40
2018-07-02T04:16:32.828Z,0.50
2018-07-02T04:17:32.817Z,0.50
2018-07-02T04:18:32.830Z,0.40
2018-07-02T04:19:32.792Z,0.30
2018-07-02T04:20:32.782Z,0.40
2018-07-02T04:21:32.773Z,0.40
2018-07-02T04:22:32.765Z,0.40
2018-07-02T04:23:32.774Z,0.30
2018-07-02T04:24:32.740Z,0.40
2018-07-02T04:25:32.727Z,0.40
2018-07-02T04:26:32.717Z,0.30
2018-07-02T04:27:32.708Z,0.30
2018-07-02T04:28:32.720Z,0.40
2018-07-02T04:29:32.685Z,0.30
2018-07-02T04:30:32.674Z,0.40
2018-07-02T04:31:32.663Z,0.50
2018-07-02T04:32:32.651Z,0.30
2018-07-02T04:33:32.665Z,0.30
2018-07-02T04:34:32.635Z,0.40
2018-07-02T04:35:32.620Z,0.40
2018-07-02T04:36:32.608Z,0.40
2018-07-02T04:37:32.597Z,0.40
2018-07-02T04:38:32.613Z,0.50
2018-07-02T04:39:32.575Z,0.50
2018-07-02T04:40:32.564Z,0.40
2018-07-02T04:41:32.559Z,0.50
2018-07-02T04:42:32.542Z,0.50
2018-07-02T04:43:32.554Z,0.40
2018-07-02T04:44:32.520Z,0.60
2018-07-02T04:45:32.509Z,0.30
2018-07-02T04:46:32.497Z,0.30
2018-07-02T04:47:32.498Z,0.40
2018-07-02T04:48:32.500Z,0.30
2018-07-02T04:49:32.466Z,0.40
2018-07-02T04:50:32.454Z,0.40
2018-07-02T04:51:32.444Z,0.50
2018-07-02T04:52:32.431Z,0.50
2018-07-02T04:53:32.445Z,0.30
2018-07-02T04:54:32.409Z,0.40
2018-07-02T04:55:32.400Z,0.30
2018-07-02T04:56:32.387Z,0.30
2018-07-02T04:57:32.376Z,0.50
2018-07-02T04:58:32.390Z,0.50
2018-07-02T04:59:32.355Z,0.40
2018-07-02T05:00:32.345Z,0.40
2018-07-02T05:01:32.333Z,0.40
2018-07-02T05:02:32.323Z,0.40
2018-07-02T05:03:32.336Z,0.40
2018-07-02T05:04:32.302Z,0.40
2018-07-02T05:05:32.289Z,0.40
2018-07-02T05:06:32.278Z,0.50
2018-07-02T05:07:32.283Z,0.40
2018-07-02T05:08:32.280Z,0.40
2018-07-02T05:09:32.246Z,0.40
2018-07-02T05:10:32.234Z,0.30
2018-07-02T05:11:32.224Z,0.40
2018-07-02T05:12:32.219Z,0.40
2018-07-02T05:13:32.226Z,0.40
2018-07-02T05:14:32.191Z,0.30
2018-07-02T05:15:32.179Z,0.40
2018-07-02T05:16:32.176Z,0.40
2018-07-02T05:17:32.158Z,0.30
2018-07-02T05:18:32.172Z,0.30
2018-07-02T05:19:32.136Z,0.30
2018-07-02T05:20:32.124Z,0.50
2018-07-02T05:21:32.120Z,0.50
2018-07-02T05:22:32.103Z,0.40
2018-07-02T05:23:32.117Z,0.40
2018-07-02T05:24:32.080Z,0.30
2018-07-02T05:25:32.070Z,0.40
2018-07-02T05:26:32.058Z,0.50
2018-07-02T05:27:32.049Z,0.40
2018-07-02T05:28:32.061Z,0.30
2018-07-02T05:29:32.025Z,0.30
2018-07-02T05:30:32.015Z,0.30
2018-07-02T05:31:32.101Z,0.50
2018-07-02T05:32:31.992Z,0.40
2018-07-02T05:33:32.006Z,0.50
2018-07-02T05:34:31.981Z,0.50
2018-07-02T05:35:31.961Z,0.40
2018-07-02T05:36:31.950Z,0.40
2018-07-02T05:37:31.937Z,0.50
2018-07-02T05:38:31.949Z,0.30
2018-07-02T05:39:31.916Z,0.40
2018-07-02T05:40:31.904Z,0.30
2018-07-02T05:41:31.893Z,0.40
2018-07-02T05:42:31.882Z,0.30
2018-07-02T05:43:31.896Z,0.30
2018-07-02T05:44:31.860Z,0.40
2018-07-02T05:45:31.850Z,0.30
2018-07-02T05:46:31.837Z,0.40
2018-07-02T05:47:31.827Z,0.30
2018-07-02T05:48:31.873Z,0.40
2018-07-02T05:49:31.807Z,0.40
2018-07-02T05:50:31.794Z,0.30
2018-07-02T05:51:31.785Z,0.40
2018-07-02T05:52:31.851Z,0.30
2018-07-02T05:53:31.763Z,0.50
2018-07-02T05:54:31.775Z,0.30
2018-07-02T05:55:31.738Z,0.40
2018-07-02T05:56:31.728Z,0.50
2018-07-02T05:57:31.717Z,0.40
2018-07-02T05:58:31.718Z,0.40
2018-07-02T05:59:31.719Z,0.40
2018-07-02T06:00:31.699Z,0.40
2018-07-02T06:01:31.674Z,0.30
2018-07-02T06:02:31.662Z,0.50
2018-07-02T06:03:31.655Z,0.40
2018-07-02T06:04:31.713Z,5.20
2018-07-02T06:05:31.630Z,8.70
2018-07-02T06:06:31.619Z,4.50
2018-07-02T06:07:31.607Z,8.30
2018-07-02T06:08:31.598Z,2.20
2018-07-02T06:09:31.611Z,2.70
2018-07-02T06:10:31.575Z,1.70
2018-07-02T06:11:31.563Z,2.80
2018-07-02T06:12:31.572Z,0.90
2018-07-02T06:13:31.545Z,0.90
2018-07-02T06:14:31.554Z,0.70
2018-07-02T06:15:31.519Z,0.60
2018-07-02T06:16:31.541Z,0.50
2018-07-02T06:17:31.497Z,0.60
2018-07-02T06:18:31.490Z,1.00
2018-07-02T06:19:31.499Z,0.80
2018-07-02T06:20:31.464Z,0.80
2018-07-02T06:21:31.453Z,0.70
2018-07-02T06:22:31.442Z,0.80
2018-07-02T06:23:31.431Z,1.00
2018-07-02T06:24:31.444Z,0.80
2018-07-02T06:25:31.409Z,0.60
2018-07-02T06:26:31.398Z,0.80
2018-07-02T06:27:31.387Z,0.90
2018-07-02T06:28:31.375Z,1.10
2018-07-02T06:29:31.393Z,0.70
2018-07-02T06:30:31.384Z,0.80
2018-07-02T06:31:31.346Z,0.70
2018-07-02T06:32:31.332Z,0.70
2018-07-02T06:33:31.321Z,0.60
2018-07-02T06:34:31.334Z,0.60
2018-07-02T06:35:31.300Z,0.80
2018-07-02T06:36:31.289Z,0.80
2018-07-02T06:37:31.281Z,0.90
2018-07-02T06:38:31.266Z,0.80
2018-07-02T06:39:31.281Z,0.70
2018-07-02T06:40:31.246Z,0.90
2018-07-02T06:41:31.233Z,0.70
2018-07-02T06:42:31.226Z,0.60
2018-07-02T06:43:31.215Z,0.90
2018-07-02T06:44:31.223Z,0.90
2018-07-02T06:45:31.191Z,0.50
2018-07-02T06:46:31.180Z,0.60
2018-07-02T06:47:31.173Z,0.80
2018-07-02T06:48:31.214Z,0.80
2018-07-02T06:49:31.274Z,0.70
2018-07-02T06:50:31.134Z,0.50
2018-07-02T06:51:31.123Z,0.60
2018-07-02T06:52:31.111Z,0.60
2018-07-02T06:53:31.099Z,0.90
2018-07-02T06:54:31.124Z,0.70
2018-07-02T06:55:31.082Z,0.90
2018-07-02T06:56:31.068Z,0.80
2018-07-02T06:57:31.060Z,0.80
2018-07-02T06:58:31.045Z,0.60
2018-07-02T06:59:31.060Z,0.80
2018-07-02T07:00:31.024Z,0.80
2018-07-02T07:01:31.015Z,0.80
2018-07-02T07:02:31.001Z,1.20
2018-07-02T07:03:30.991Z,0.80
2018-07-02T07:04:31.005Z,0.70
2018-07-02T07:05:30.968Z,0.70
2018-07-02T07:06:30.961Z,0.50
2018-07-02T07:07:30.948Z,0.80
2018-07-02T07:08:30.945Z,0.80
2018-07-02T07:09:30.950Z,0.80
2018-07-02T07:10:30.916Z,0.60
2018-07-02T07:11:30.908Z,0.70
2018-07-02T07:12:30.893Z,0.50
2018-07-02T07:13:30.882Z,0.70
2018-07-02T07:14:30.896Z,0.90
2018-07-02T07:15:30.887Z,0.70
2018-07-02T07:16:30.849Z,0.60
2018-07-02T07:17:30.839Z,0.70
2018-07-02T07:18:30.826Z,0.50
2018-07-02T07:19:30.838Z,0.80
2018-07-02T07:20:30.804Z,0.90
2018-07-02T07:21:30.793Z,0.80
2018-07-02T07:22:30.783Z,0.60
2018-07-02T07:23:30.771Z,0.80
2018-07-02T07:24:30.786Z,0.60
2018-07-02T07:25:30.750Z,0.80
2018-07-02T07:26:30.741Z,0.50
2018-07-02T07:27:30.758Z,0.50
2018-07-02T07:28:30.717Z,0.60
2018-07-02T07:29:30.730Z,0.90
2018-07-02T07:30:30.695Z,0.70
2018-07-02T07:31:30.685Z,0.90
2018-07-02T07:32:30.673Z,1.30
2018-07-02T07:33:30.663Z,1.00
2018-07-02T07:34:30.653Z,0.70
2018-07-02T07:35:30.667Z,0.80
2018-07-02T07:36:30.630Z,0.60
2018-07-02T07:37:30.628Z,0.70
2018-07-02T07:38:30.608Z,1.00
2018-07-02T07:39:30.622Z,1.00
2018-07-02T07:40:30.586Z,0.80
2018-07-02T07:41:30.575Z,0.90
2018-07-02T07:42:30.564Z,0.70
2018-07-02T07:43:30.552Z,0.70
2018-07-02T07:44:30.543Z,0.80
2018-07-02T07:45:30.554Z,0.80
2018-07-02T07:46:30.520Z,1.00
2018-07-02T07:47:30.508Z,0.90
2018-07-02T07:48:30.498Z,0.60
2018-07-02T07:49:30.489Z,0.70
2018-07-02T07:50:30.499Z,0.80
2018-07-02T07:51:30.465Z,0.60
2018-07-02T07:52:30.454Z,0.80
2018-07-02T07:53:30.442Z,0.70
2018-07-02T07:54:30.433Z,1.00
2018-07-02T07:55:30.443Z,0.90
2018-07-02T07:56:30.409Z,0.70
2018-07-02T07:57:30.400Z,0.80
2018-07-02T07:58:30.388Z,0.80
2018-07-02T07:59:30.444Z,0.80
2018-07-02T08:00:30.390Z,0.70
2018-07-02T08:01:30.355Z,0.70
2018-07-02T08:02:30.345Z,0.50
2018-07-02T08:03:30.340Z,0.60
2018-07-02T08:04:30.321Z,0.70
2018-07-02T08:05:30.336Z,1.00
2018-07-02T08:06:30.300Z,0.60
2018-07-02T08:07:30.288Z,0.90
2018-07-02T08:08:30.278Z,0.60
2018-07-02T09:13:01.353Z,0.70
2018-07-02T09:14:01.365Z,0.90
2018-07-02T09:15:01.309Z,0.90
2018-07-02T09:16:01.320Z,1.00
2018-07-02T09:17:01.289Z,1.00
2018-07-02T09:18:01.277Z,1.10
2018-07-02T09:19:01.370Z,1.60
2018-07-02T09:20:01.288Z,0.80
2018-07-02T09:21:01.288Z,0.80
2018-07-02T09:22:01.248Z,0.80
2018-07-02T09:23:01.223Z,0.80
2018-07-02T09:24:01.211Z,0.80
2018-07-02T09:25:01.209Z,0.70
2018-07-02T09:26:01.212Z,0.70
2018-07-02T09:27:01.177Z,0.80
2018-07-02T09:28:01.165Z,1.10
2018-07-02T09:29:01.154Z,0.90
2018-07-02T09:30:01.179Z,0.80
2018-07-02T09:31:01.172Z,0.60
2018-07-02T09:32:01.122Z,0.90
2018-07-02T09:33:01.111Z,1.00
2018-07-02T09:34:01.102Z,1.00
2018-07-02T09:35:01.125Z,2.20
2018-07-02T09:36:01.101Z,1.50
2018-07-02T09:37:01.066Z,1.50
2018-07-02T09:38:01.065Z,1.30
2018-07-02T09:39:01.057Z,1.80
2018-07-02T09:40:01.037Z,0.60
2018-07-02T09:41:01.052Z,0.80
2018-07-02T09:42:01.041Z,0.70
2018-07-02T09:43:01.065Z,0.80
2018-07-02T09:44:00.997Z,0.80
2018-07-02T09:45:00.978Z,1.10
2018-07-02T09:46:01.010Z,0.80
2018-07-02T09:47:00.957Z,0.80
2018-07-02T09:48:00.949Z,0.90
2018-07-02T09:49:00.933Z,0.70
2018-07-02T09:50:00.949Z,0.80
2018-07-02T09:51:00.950Z,0.90
2018-07-02T09:52:00.901Z,0.70
2018-07-02T09:53:00.892Z,1.40
2018-07-02T09:54:00.883Z,0.80
2018-07-02T09:55:00.868Z,1.40
2018-07-02T09:56:00.919Z,0.90
2018-07-02T09:57:00.855Z,0.90
2018-07-02T09:58:00.847Z,0.60
2018-07-02T09:59:00.861Z,0.60
2018-07-02T10:00:00.816Z,0.60
2018-07-02T10:01:00.860Z,0.80
2018-07-02T10:02:00.793Z,0.90
2018-07-02T10:03:00.787Z,0.70
2018-07-02T10:04:00.780Z,0.70
2018-07-02T10:05:00.768Z,0.70
2018-07-02T10:06:02.628Z,1.00
2018-07-02T10:07:00.740Z,1.10
2018-07-02T10:08:00.724Z,0.70
2018-07-02T10:09:00.717Z,0.60
2018-07-02T10:10:00.725Z,0.60
2018-07-02T10:11:00.739Z,1.00
2018-07-02T10:12:00.710Z,0.80
2018-07-02T10:13:00.673Z,0.60
2018-07-02T10:14:00.668Z,0.70
2018-07-02T10:15:00.646Z,0.60
2018-07-02T10:16:00.638Z,0.70
2018-07-02T10:17:00.680Z,0.90
2018-07-02T10:18:00.662Z,0.80
2018-07-02T10:19:00.604Z,0.70
2018-07-02T10:20:00.594Z,0.70
2018-07-02T10:21:00.588Z,0.70
2018-07-02T10:22:00.599Z,0.80
2018-07-02T10:23:00.564Z,0.50
2018-07-02T10:24:00.635Z,0.60
2018-07-02T10:25:00.547Z,0.90
2018-07-02T10:26:00.613Z,0.80
2018-07-02T10:27:00.537Z,1.10
2018-07-02T10:28:00.519Z,1.00
2018-07-02T10:29:00.509Z,1.00
2018-07-02T10:30:00.481Z,0.60
2018-07-02T10:31:00.538Z,0.60
2018-07-02T10:32:00.481Z,0.70
2018-07-02T10:33:00.454Z,0.70
2018-07-02T10:34:00.443Z,0.60
2018-07-02T10:35:00.433Z,0.70
2018-07-02T10:36:00.453Z,1.00
2018-07-02T10:37:00.434Z,0.80
2018-07-02T10:38:00.432Z,0.80
2018-07-02T10:39:00.427Z,0.70
2018-07-02T10:40:00.451Z,0.60
2018-07-02T10:41:00.377Z,0.90
2018-07-02T10:42:00.377Z,0.70
2018-07-02T10:43:00.356Z,0.60
2018-07-02T10:44:00.349Z,1.20
2018-07-02T10:45:00.323Z,0.50
2018-07-02T10:46:00.310Z,0.70
2018-07-02T10:47:00.359Z,0.60
2018-07-02T10:48:00.322Z,0.70
2018-07-02T10:49:00.409Z,0.80
2018-07-02T10:50:00.265Z,0.90
2018-07-02T10:51:00.257Z,1.00
2018-07-02T10:52:00.644Z,0.80
2018-07-02T10:53:00.244Z,0.60
2018-07-02T10:54:00.230Z,0.80
2018-07-02T10:55:00.220Z,0.60
2018-07-02T10:56:00.211Z,0.60
2018-07-02T10:57:00.215Z,0.70
2018-07-02T10:58:00.184Z,0.50
2018-07-02T10:59:00.172Z,0.50
2018-07-02T11:00:00.159Z,0.90
2018-07-02T11:01:00.149Z,0.90
2018-07-02T11:02:00.156Z,0.80
2018-07-02T11:03:00.136Z,0.70
2018-07-02T11:04:00.131Z,1.00
2018-07-02T11:05:00.099Z,0.70
2018-07-02T11:06:00.106Z,0.80
2018-07-02T11:07:00.104Z,0.90
2018-07-02T11:08:00.072Z,0.80
2018-07-02T11:09:00.062Z,0.80
2018-07-02T11:10:00.052Z,0.70
2018-07-02T11:11:00.053Z,0.80
2018-07-02T11:12:00.059Z,0.90
2018-07-02T11:13:00.022Z,0.90
2018-07-02T11:14:00.011Z,0.70
2018-07-02T11:15:00.004Z,0.90
2018-07-02T11:15:59.990Z,0.80
2018-07-02T11:16:59.994Z,1.00
2018-07-02T11:17:59.959Z,0.60
2018-07-02T11:18:59.994Z,0.80
2018-07-02T11:19:59.957Z,0.60
2018-07-02T11:20:59.928Z,0.60
2018-07-02T11:21:59.947Z,0.60
2018-07-02T11:22:59.905Z,0.70
2018-07-02T11:23:59.895Z,1.20
2018-07-02T11:24:59.886Z,0.90
2018-07-02T11:25:59.900Z,0.80
2018-07-02T11:26:59.892Z,0.70
2018-07-02T11:27:59.860Z,0.80
2018-07-02T11:28:59.841Z,0.60
2018-07-02T11:29:59.879Z,0.80
2018-07-02T11:30:59.827Z,0.70
2018-07-02T11:31:59.836Z,0.80
2018-07-02T11:32:59.803Z,0.50
2018-07-02T11:33:59.799Z,0.80
2018-07-02T11:34:59.782Z,0.70
2018-07-02T11:35:59.768Z,0.50
2018-07-02T11:36:59.804Z,0.50
2018-07-02T11:37:59.747Z,0.60
2018-07-02T11:38:59.740Z,0.60
2018-07-02T11:39:59.729Z,0.50
2018-07-02T11:40:59.747Z,0.50
2018-07-02T11:41:59.750Z,0.80
2018-07-02T11:42:59.696Z,0.70
2018-07-02T11:43:59.713Z,0.50
2018-07-02T11:44:59.673Z,0.50
2018-07-02T11:45:59.663Z,0.60
2018-07-02T11:46:59.678Z,0.40
2018-07-02T11:47:59.648Z,0.40
2018-07-02T11:48:59.632Z,0.60
2018-07-02T11:49:59.622Z,0.40
2018-07-02T11:50:59.619Z,0.60
2018-07-02T11:51:59.602Z,0.60
2018-07-02T11:52:59.614Z,0.70
2018-07-02T11:53:59.589Z,0.60
2018-07-02T11:54:59.575Z,0.50
2018-07-02T11:55:59.560Z,0.60
2018-07-02T11:56:59.576Z,0.70
2018-07-02T11:57:59.557Z,0.60
2018-07-02T11:58:59.557Z,0.60
2018-07-02T11:59:59.538Z,0.70
2018-07-02T12:00:59.510Z,0.50
2018-07-02T12:01:59.590Z,0.40
2018-07-02T12:02:59.512Z,0.50
2018-07-02T12:03:59.477Z,0.70
2018-07-02T12:04:59.488Z,0.50
2018-07-02T12:05:59.486Z,0.50
2018-07-02T12:06:59.446Z,0.50
2018-07-02T12:07:59.519Z,0.70
2018-07-02T12:08:59.424Z,0.60
2018-07-02T12:09:59.412Z,0.40
2018-07-02T12:10:59.403Z,0.60
2018-07-02T12:11:59.403Z,0.80
2018-07-02T12:12:59.403Z,0.60
2018-07-02T12:13:59.369Z,0.90
2018-07-02T12:14:59.359Z,0.90
2018-07-02T12:15:59.348Z,0.60
2018-07-02T12:16:59.341Z,0.40
2018-07-02T12:17:59.355Z,0.50
2018-07-02T12:18:59.323Z,0.50
2018-07-02T12:19:59.312Z,0.60
2018-07-02T12:20:59.296Z,0.30
2018-07-02T12:21:59.372Z,0.30
2018-07-02T12:22:59.305Z,0.50
2018-07-02T12:23:59.273Z,0.50
2018-07-02T12:24:59.265Z,0.60
2018-07-02T12:25:59.248Z,0.50
2018-07-02T12:26:59.249Z,0.50
2018-07-02T12:27:59.248Z,0.60
2018-07-02T12:28:59.216Z,0.70
2018-07-02T12:29:59.207Z,0.40
2018-07-02T12:30:59.195Z,1.00
2018-07-02T12:31:59.185Z,0.70
2018-07-02T12:32:59.203Z,0.60
2018-07-02T12:33:59.172Z,0.50
2018-07-02T12:34:59.157Z,0.60
2018-07-02T12:35:59.154Z,0.40
2018-07-02T12:36:59.139Z,0.50
2018-07-02T12:37:59.153Z,0.40
2018-07-02T12:38:59.120Z,0.50
2018-07-02T12:39:59.108Z,0.60
2018-07-02T12:40:59.107Z,0.50
2018-07-02T12:41:59.086Z,0.50
2018-07-02T12:42:59.098Z,0.50
2018-07-02T12:43:59.116Z,0.40
2018-07-02T12:44:59.056Z,0.50
2018-07-02T12:45:59.046Z,0.60
2018-07-02T12:46:59.036Z,0.50
2018-07-02T12:47:59.064Z,0.40
2018-07-02T12:48:59.056Z,0.50
2018-07-02T12:49:59.045Z,0.40
2018-07-02T12:50:58.995Z,0.80
2018-07-02T12:51:58.987Z,0.60
2018-07-02T12:52:59.044Z,0.50
2018-07-02T12:53:58.968Z,0.50
2018-07-02T12:54:58.957Z,0.80
2018-07-02T12:55:58.961Z,0.80
2018-07-02T12:56:58.939Z,0.40
2018-07-02T12:57:58.963Z,0.50
2018-07-02T12:58:58.920Z,0.50
2018-07-02T12:59:58.908Z,0.40
2018-07-02T13:00:58.904Z,0.40
2018-07-02T13:01:58.888Z,0.40
2018-07-02T13:02:58.923Z,0.40
2018-07-02T13:03:58.878Z,0.40
2018-07-02T13:04:58.862Z,0.60
2018-07-02T13:05:58.853Z,0.40
2018-07-02T13:06:58.841Z,0.40
2018-07-02T13:07:58.854Z,0.40
2018-07-02T13:08:58.843Z,0.30
2018-07-02T13:09:58.813Z,0.40
2018-07-02T13:10:58.807Z,0.50
2018-07-02T13:11:58.793Z,0.50
2018-07-02T13:12:58.806Z,0.50
2018-07-02T13:13:58.775Z,0.50
2018-07-02T13:14:58.770Z,0.60
2018-07-02T13:15:58.757Z,0.50
2018-07-02T13:16:58.779Z,0.60
2018-07-02T13:17:58.763Z,0.30
2018-07-02T13:18:58.729Z,0.60
2018-07-02T13:19:58.718Z,0.60
2018-07-02T13:20:58.716Z,0.50
2018-07-02T13:21:58.700Z,0.60
2018-07-02T13:22:58.740Z,0.70
2018-07-02T13:23:58.680Z,0.30
2018-07-02T13:24:58.677Z,0.40
2018-07-02T13:25:58.671Z,0.50
2018-07-02T13:26:58.675Z,0.50
2018-07-02T13:27:58.670Z,0.40
2018-07-02T13:28:58.633Z,0.40
2018-07-02T13:29:58.673Z,0.70
2018-07-02T13:30:58.638Z,0.40
2018-07-02T13:31:58.606Z,0.80
2018-07-02T13:32:58.619Z,0.60
2018-07-02T13:33:58.591Z,0.70
2018-07-02T13:34:58.631Z,0.50
2018-07-02T13:35:58.569Z,0.60
2018-07-02T13:36:58.561Z,0.60
2018-07-02T13:37:58.658Z,0.50
2018-07-02T13:38:58.566Z,0.40
2018-07-02T13:39:58.535Z,0.40
2018-07-02T13:40:58.531Z,0.40
2018-07-02T13:41:58.537Z,0.30
2018-07-02T13:42:58.509Z,0.40
2018-07-02T13:43:58.623Z,0.40
2018-07-02T13:44:58.513Z,0.50
2018-07-02T13:45:58.481Z,0.50
2018-07-02T13:46:58.547Z,0.50
2018-07-02T13:47:58.468Z,0.50
2018-07-02T13:48:58.477Z,0.40
2018-07-02T13:49:58.492Z,0.40
2018-07-02T13:50:58.436Z,0.70
2018-07-02T13:51:58.431Z,0.50
2018-07-02T13:52:58.424Z,0.40
2018-07-02T13:53:58.440Z,0.40
2018-07-02T13:54:58.405Z,0.50
2018-07-02T13:55:58.490Z,0.60
2018-07-02T13:56:58.388Z,0.50
2018-07-02T13:57:58.384Z,0.40
2018-07-02T13:58:58.394Z,0.40
2018-07-02T13:59:58.361Z,0.40
2018-07-02T14:00:58.353Z,0.60
2018-07-02T14:01:58.346Z,0.40
2018-07-02T14:02:58.467Z,0.30
2018-07-02T14:03:58.351Z,0.40
2018-07-02T14:04:58.327Z,0.50
2018-07-02T14:05:58.340Z,0.60
2018-07-02T14:06:58.316Z,0.50
2018-07-02T14:07:58.317Z,0.60
2018-07-02T14:08:58.316Z,0.60
2018-07-02T14:09:58.279Z,0.60
2018-07-02T14:10:58.309Z,0.50
2018-07-02T14:11:58.316Z,0.60
2018-07-02T14:12:58.402Z,0.60
2018-07-02T14:13:58.440Z,0.60
2018-07-02T14:14:58.308Z,0.50
2018-07-02T14:15:58.293Z,0.60
2018-07-02T14:16:58.247Z,0.40
2018-07-02T14:17:58.226Z,0.40
2018-07-02T14:18:58.236Z,0.50
2018-07-02T14:19:58.221Z,0.60
2018-07-02T14:20:58.192Z,0.50
2018-07-02T14:21:58.184Z,0.50